Time;durP1;ratioP1;P1;durP2;ratioP2;P2;SDS_P1;SDS_P2;PMS_P1;PMS_P2;Temp;Humidity;BMP_temperature;BMP_pressure;BME280_temperature;BME280_humidity;BME280_pressure;Samples;Min_cycle;Max_cycle;Signal;HPM_P1;HPM_P2
2023/04/09 00:00:10;;;;;;;2.63;1.83;;;;;;;;;;4975469;28;20105;-65
2023/04/09 00:02:36;;;;;;;16.00;2.07;;;;;;;;;;4975834;28;20019;-63
2023/04/09 00:05:03;;;;;;;4.37;2.70;;;;;;;;;;4975810;28;20114;-64
2023/04/09 00:07:30;;;;;;;3.83;2.13;;;;;;;;;;4975941;28;20058;-63
2023/04/09 00:09:57;;;;;;;5.70;2.00;;;;;;;;;;4970673;28;20018;-65
2023/04/09 00:12:24;;;;;;;1.97;1.53;;;;;;;;;;4970621;28;20066;-63
2023/04/09 00:14:51;;;;;;;2.07;1.63;;;;;;;;;;4970724;28;20034;-62
2023/04/09 00:17:18;;;;;;;3.27;1.93;;;;;;;;;;4970267;28;20027;-63
2023/04/09 00:19:45;;;;;;;4.03;2.50;;;;;;;;;;4974136;28;20435;-64
2023/04/09 00:22:11;;;;;;;4.93;2.30;;;;;;;;;;4975385;28;20027;-62
2023/04/09 00:24:38;;;;;;;3.00;2.17;;;;;;;;;;4975400;28;20058;-62
2023/04/09 00:27:05;;;;;;;2.73;2.00;;;;;;;;;;4975632;28;20026;-63
2023/04/09 00:29:32;;;;;;;3.60;2.13;;;;;;;;;;4975370;28;20027;-64
2023/04/09 00:32:01;;;;;;;2.93;1.73;;;;;;;;;;4971364;28;20050;-63
2023/04/09 00:34:27;;;;;;;8.00;2.43;;;;;;;;;;4969895;28;20035;-64
2023/04/09 00:36:54;;;;;;;2.57;1.90;;;;;;;;;;4970206;28;20033;-64
2023/04/09 00:39:21;;;;;;;3.07;1.90;;;;;;;;;;4970143;28;20026;-63
2023/04/09 00:41:48;;;;;;;3.60;2.00;;;;;;;;;;4972344;28;20053;-64
2023/04/09 00:44:14;;;;;;;2.93;2.07;;;;;;;;;;4975088;28;20066;-64
2023/04/09 00:46:41;;;;;;;2.60;1.90;;;;;;;;;;4975037;28;20081;-64
2023/04/09 00:49:08;;;;;;;2.43;1.60;;;;;;;;;;4982814;28;20025;-63
2023/04/09 00:51:35;;;;;;;5.97;1.90;;;;;;;;;;4995298;28;20389;-64
2023/04/09 00:54:02;;;;;;;2.50;1.90;;;;;;;;;;4991657;28;20033;-64
2023/04/09 00:56:29;;;;;;;4.03;2.30;;;;;;;;;;4989211;28;20033;-63
2023/04/09 00:58:56;;;;;;;2.60;1.93;;;;;;;;;;4989112;28;20041;-63
2023/04/09 01:01:23;;;;;;;2.13;1.73;;;;;;;;;;4988789;28;20362;-64
2023/04/09 01:03:49;;;;;;;2.97;2.13;;;;;;;;;;4990853;28;20399;-63
2023/04/09 01:06:27;;;;;;;3.33;2.30;;;;;;;;;;4994350;28;20030;-63
2023/04/09 01:09:02;;;;;;;4.90;2.33;;;;;;;;;;4994134;28;20026;-63
2023/04/09 01:11:32;;;;;;;5.30;2.70;;;;;;;;;;4994180;28;20385;-63
2023/04/09 01:14:05;;;;;;;4.50;2.43;;;;;;;;;;4994032;28;20058;-63
2023/04/09 01:16:34;;;;;;;4.07;2.03;;;;;;;;;;4991309;28;20022;-64
2023/04/09 01:19:10;;;;;;;4.97;2.57;;;;;;;;;;4989026;28;20026;-63
2023/04/09 01:21:39;;;;;;;2.60;2.23;;;;;;;;;;4988853;28;20057;-63
2023/04/09 01:24:37;;;;;;;2.03;1.60;;;;;;;;;;4988856;28;20054;-63
2023/04/09 01:27:06;;;;;;;3.37;2.20;;;;;;;;;;4991791;28;20046;-63
2023/04/09 01:29:34;;;;;;;3.13;2.37;;;;;;;;;;4994029;28;20097;-62
2023/04/09 01:32:04;;;;;;;1.50;1.30;;;;;;;;;;4993689;28;20037;-62
2023/04/09 01:34:31;;;;;;;2.93;1.70;;;;;;;;;;4993941;28;20026;-61
2023/04/09 01:36:59;;;;;;;3.83;2.43;;;;;;;;;;4993707;28;20026;-61
2023/04/09 01:39:27;;;;;;;2.90;1.83;;;;;;;;;;4990048;28;20023;-63
2023/04/09 01:41:55;;;;;;;4.03;2.67;;;;;;;;;;4988315;28;20025;-61
2023/04/09 01:44:23;;;;;;;4.33;2.97;;;;;;;;;;4988325;28;20030;-61
2023/04/09 01:46:50;;;;;;;3.70;2.67;;;;;;;;;;4988269;28;20446;-61
2023/04/09 01:49:17;;;;;;;4.33;2.50;;;;;;;;;;4990944;28;20109;-62
2023/04/09 01:51:44;;;;;;;4.50;2.87;;;;;;;;;;4993095;28;20034;-62
2023/04/09 01:54:10;;;;;;;5.20;2.83;;;;;;;;;;4993430;28;20057;-62
2023/04/09 01:56:41;;;;;;;3.97;2.67;;;;;;;;;;4993151;28;20026;-64
2023/04/09 01:59:08;;;;;;;4.17;2.77;;;;;;;;;;4993169;28;20030;-65
2023/04/09 02:01:41;;;;;;;3.80;2.77;;;;;;;;;;4990241;28;20050;-63
2023/04/09 02:04:15;;;;;;;4.63;2.73;;;;;;;;;;4987945;28;20363;-61
2023/04/09 02:06:48;;;;;;;4.45;3.10;;;;;;;;;;4988035;28;20026;-63
2023/04/09 02:09:16;;;;;;;3.97;2.70;;;;;;;;;;4988163;28;20100;-61
2023/04/09 02:11:43;;;;;;;4.47;2.70;;;;;;;;;;4989923;28;20042;-63
2023/04/09 02:14:11;;;;;;;5.43;3.50;;;;;;;;;;4993252;28;20033;-63
2023/04/09 02:16:39;;;;;;;3.63;2.47;;;;;;;;;;4993170;28;20393;-63
2023/04/09 02:19:05;;;;;;;3.80;3.00;;;;;;;;;;4992918;28;20026;-63
2023/04/09 02:21:32;;;;;;;7.27;3.27;;;;;;;;;;4992925;28;20073;-63
2023/04/09 02:23:59;;;;;;;5.37;2.90;;;;;;;;;;4990313;28;20030;-62
2023/04/09 02:26:25;;;;;;;5.10;3.50;;;;;;;;;;4987842;28;20080;-62
2023/04/09 02:28:52;;;;;;;4.63;3.33;;;;;;;;;;4987761;28;20105;-62
2023/04/09 02:31:19;;;;;;;4.27;3.13;;;;;;;;;;4987229;28;20065;-61
2023/04/09 02:33:45;;;;;;;6.70;3.03;;;;;;;;;;4989203;28;20389;-62
2023/04/09 02:36:13;;;;;;;5.47;2.73;;;;;;;;;;4992747;28;20041;-63
2023/04/09 02:38:42;;;;;;;5.30;2.77;;;;;;;;;;4992833;28;20385;-61
2023/04/09 02:41:09;;;;;;;16.80;2.97;;;;;;;;;;4992801;28;20145;-61
2023/04/09 02:43:36;;;;;;;4.77;2.53;;;;;;;;;;4992795;28;20058;-61
2023/04/09 02:46:03;;;;;;;4.73;2.60;;;;;;;;;;4989969;28;20097;-61
2023/04/09 02:48:30;;;;;;;4.87;3.00;;;;;;;;;;4985840;28;20030;-61
2023/04/09 02:50:56;;;;;;;9.03;3.73;;;;;;;;;;4986646;28;20026;-62
2023/04/09 02:53:24;;;;;;;3.43;2.43;;;;;;;;;;4986673;28;20116;-61
2023/04/09 02:55:50;;;;;;;12.27;4.30;;;;;;;;;;4987384;28;20105;-62
2023/04/09 02:58:17;;;;;;;5.77;3.80;;;;;;;;;;4992055;28;20045;-61
2023/04/09 03:00:44;;;;;;;4.83;3.53;;;;;;;;;;4992213;28;20027;-61
2023/04/09 03:03:10;;;;;;;5.23;3.53;;;;;;;;;;4992190;28;20362;-61
2023/04/09 03:05:37;;;;;;;6.70;4.00;;;;;;;;;;4992043;28;20464;-61
2023/04/09 03:08:04;;;;;;;5.80;3.00;;;;;;;;;;4991301;28;20035;-61
2023/04/09 03:10:31;;;;;;;4.97;3.43;;;;;;;;;;4986513;28;20026;-61
2023/04/09 03:12:57;;;;;;;6.07;3.87;;;;;;;;;;4986841;28;20046;-61
2023/04/09 03:15:24;;;;;;;5.97;4.27;;;;;;;;;;4990431;28;20109;-61
2023/04/09 03:17:51;;;;;;;10.57;4.37;;;;;;;;;;4990695;28;20053;-61
2023/04/09 03:20:18;;;;;;;4.53;3.43;;;;;;;;;;4995319;28;20041;-61
2023/04/09 03:22:44;;;;;;;4.50;3.13;;;;;;;;;;4996295;28;20085;-61
2023/04/09 03:25:11;;;;;;;4.63;3.60;;;;;;;;;;4995928;28;20030;-61
2023/04/09 03:27:38;;;;;;;3.73;2.93;;;;;;;;;;4996184;28;20026;-61
2023/04/09 03:30:04;;;;;;;5.47;3.07;;;;;;;;;;4995750;28;20030;-61
2023/04/09 03:32:31;;;;;;;5.67;3.67;;;;;;;;;;4991334;28;20081;-61
2023/04/09 03:34:58;;;;;;;6.73;3.77;;;;;;;;;;4990763;28;20081;-61
2023/04/09 03:37:24;;;;;;;5.10;2.87;;;;;;;;;;4990728;28;20028;-61
2023/04/09 03:39:51;;;;;;;5.63;3.83;;;;;;;;;;4990567;28;20033;-62
2023/04/09 03:42:18;;;;;;;9.63;3.93;;;;;;;;;;4993914;28;20515;-61
2023/04/09 03:44:50;;;;;;;5.13;3.37;;;;;;;;;;4995685;28;20030;-61
2023/04/09 03:47:16;;;;;;;3.97;2.77;;;;;;;;;;4995376;28;20026;-61
2023/04/09 03:49:43;;;;;;;5.13;3.53;;;;;;;;;;4995538;28;20026;-61
2023/04/09 03:52:10;;;;;;;4.00;2.00;;;;;;;;;;4995545;28;20035;-61
2023/04/09 03:54:36;;;;;;;4.67;3.30;;;;;;;;;;4992278;28;20019;-61
2023/04/09 03:57:03;;;;;;;6.00;3.67;;;;;;;;;;4990384;28;20069;-61
2023/04/09 03:59:30;;;;;;;5.23;3.53;;;;;;;;;;4990299;28;20497;-61
2023/04/09 04:01:56;;;;;;;10.67;3.77;;;;;;;;;;4990171;28;20477;-61
2023/04/09 04:04:23;;;;;;;10.37;4.73;;;;;;;;;;4992806;28;20489;-61
2023/04/09 04:06:50;;;;;;;10.53;4.50;;;;;;;;;;4995504;28;20161;-61
2023/04/09 04:09:16;;;;;;;8.73;3.63;;;;;;;;;;4995186;28;20026;-61
2023/04/09 04:11:43;;;;;;;5.50;3.83;;;;;;;;;;4995339;28;20113;-61
2023/04/09 04:14:10;;;;;;;7.90;4.53;;;;;;;;;;4995112;28;20033;-61
2023/04/09 04:16:36;;;;;;;6.33;3.90;;;;;;;;;;4992694;28;20080;-61
2023/04/09 04:19:03;;;;;;;17.20;4.77;;;;;;;;;;4989785;28;20389;-61
2023/04/09 04:21:30;;;;;;;6.30;4.17;;;;;;;;;;4990051;28;20728;-61
2023/04/09 04:23:57;;;;;;;6.33;5.00;;;;;;;;;;4989698;28;20164;-61
2023/04/09 04:26:23;;;;;;;5.40;4.07;;;;;;;;;;4990926;28;20026;-61
2023/04/09 04:28:50;;;;;;;6.87;3.93;;;;;;;;;;4994837;28;20068;-61
2023/04/09 04:31:16;;;;;;;5.13;3.73;;;;;;;;;;4994900;28;20085;-61
2023/04/09 04:33:43;;;;;;;10.60;4.60;;;;;;;;;;4994792;28;20025;-61
2023/04/09 04:36:11;;;;;;;6.80;3.83;;;;;;;;;;4994855;28;20470;-61
2023/04/09 04:38:40;;;;;;;4.23;3.30;;;;;;;;;;4993297;28;20070;-61
2023/04/09 04:41:07;;;;;;;9.30;4.90;;;;;;;;;;4989578;28;20027;-61
2023/04/09 04:43:34;;;;;;;6.23;4.50;;;;;;;;;;4989733;28;20034;-61
2023/04/09 04:46:00;;;;;;;6.07;4.20;;;;;;;;;;4989104;28;20472;-61
2023/04/09 04:48:29;;;;;;;4.40;2.97;;;;;;;;;;4989427;28;20089;-61
2023/04/09 04:50:59;;;;;;;4.97;3.63;;;;;;;;;;4994203;28;20057;-61
2023/04/09 04:53:26;;;;;;;4.23;3.27;;;;;;;;;;4994469;28;20142;-61
2023/04/09 04:55:53;;;;;;;6.33;4.37;;;;;;;;;;4994543;28;20046;-61
2023/04/09 04:58:20;;;;;;;9.13;4.07;;;;;;;;;;4994463;28;20028;-61
2023/04/09 05:00:47;;;;;;;3.70;2.73;;;;;;;;;;4994256;28;20532;-61
2023/04/09 05:03:14;;;;;;;4.80;3.07;;;;;;;;;;4988971;28;20026;-61
2023/04/09 05:05:41;;;;;;;5.53;3.40;;;;;;;;;;4988846;28;20389;-61
2023/04/09 05:08:07;;;;;;;3.80;2.77;;;;;;;;;;4989088;28;20062;-61
2023/04/09 05:10:34;;;;;;;5.97;3.50;;;;;;;;;;4988923;28;20034;-61
2023/04/09 05:13:01;;;;;;;3.83;2.60;;;;;;;;;;4993547;28;20397;-60
2023/04/09 05:15:27;;;;;;;5.30;3.23;;;;;;;;;;4994183;28;20424;-61
2023/04/09 05:17:54;;;;;;;7.80;3.80;;;;;;;;;;4994190;28;20362;-61
2023/04/09 05:20:21;;;;;;;3.83;2.90;;;;;;;;;;4994131;28;20030;-61
2023/04/09 05:22:47;;;;;;;6.20;4.60;;;;;;;;;;4993913;28;20023;-60
2023/04/09 05:25:15;;;;;;;5.37;3.70;;;;;;;;;;4988901;28;20057;-61
2023/04/09 05:27:41;;;;;;;3.57;3.03;;;;;;;;;;4988470;28;20026;-61
2023/04/09 05:30:08;;;;;;;7.60;3.73;;;;;;;;;;4988772;28;20050;-60
2023/04/09 05:32:35;;;;;;;8.67;3.67;;;;;;;;;;4988434;28;20378;-61
2023/04/09 05:35:02;;;;;;;10.47;3.93;;;;;;;;;;4991953;28;20034;-61
2023/04/09 05:37:28;;;;;;;5.20;3.67;;;;;;;;;;4993203;28;20026;-60
2023/04/09 05:39:56;;;;;;;9.97;4.00;;;;;;;;;;4993510;28;20038;-61
2023/04/09 05:42:22;;;;;;;2.57;2.00;;;;;;;;;;4993618;28;20038;-61
2023/04/09 05:44:49;;;;;;;3.77;2.70;;;;;;;;;;4992913;28;20525;-61
2023/04/09 05:47:16;;;;;;;8.93;3.83;;;;;;;;;;4990461;28;20548;-61
2023/04/09 05:49:43;;;;;;;5.73;2.63;;;;;;;;;;4988077;28;20045;-61
2023/04/09 05:52:09;;;;;;;7.10;3.70;;;;;;;;;;4988006;28;20038;-61
2023/04/09 05:54:36;;;;;;;4.37;3.27;;;;;;;;;;4988138;28;20038;-61
2023/04/09 05:57:03;;;;;;;3.97;2.60;;;;;;;;;;4990358;28;20037;-61
2023/04/09 05:59:30;;;;;;;4.63;3.27;;;;;;;;;;4993221;28;20037;-60
2023/04/09 06:01:56;;;;;;;4.33;2.90;;;;;;;;;;4993337;28;20018;-61
2023/04/09 06:04:23;;;;;;;5.60;3.30;;;;;;;;;;4992500;28;20085;-60
2023/04/09 06:06:50;;;;;;;4.50;3.27;;;;;;;;;;4993350;28;20028;-61
2023/04/09 06:09:17;;;;;;;7.37;3.33;;;;;;;;;;4990802;28;20085;-62
2023/04/09 06:11:44;;;;;;;6.90;3.10;;;;;;;;;;4987834;28;20065;-60
2023/04/09 06:14:15;;;;;;;7.07;3.83;;;;;;;;;;4987795;28;20034;-61
2023/04/09 06:16:41;;;;;;;4.70;3.87;;;;;;;;;;4987717;28;20034;-61
2023/04/09 06:19:08;;;;;;;5.23;3.90;;;;;;;;;;4989154;28;20046;-60
2023/04/09 06:21:35;;;;;;;6.80;3.80;;;;;;;;;;4992564;28;20022;-61
2023/04/09 06:24:01;;;;;;;4.83;3.30;;;;;;;;;;4992864;28;20412;-61
2023/04/09 06:26:28;;;;;;;2.87;2.07;;;;;;;;;;4992983;28;20031;-61
2023/04/09 06:28:55;;;;;;;4.00;3.37;;;;;;;;;;4992835;28;20022;-60
2023/04/09 06:31:21;;;;;;;4.77;3.50;;;;;;;;;;4991638;28;20034;-60
2023/04/09 06:33:48;;;;;;;5.20;3.77;;;;;;;;;;4987548;28;20034;-61
2023/04/09 06:36:15;;;;;;;4.73;3.17;;;;;;;;;;4987275;28;20023;-61
2023/04/09 06:38:41;;;;;;;4.47;3.40;;;;;;;;;;4987639;28;20073;-61
2023/04/09 06:41:10;;;;;;;5.13;3.87;;;;;;;;;;4987577;28;20031;-62
2023/04/09 06:43:37;;;;;;;5.10;3.30;;;;;;;;;;4992495;28;20042;-61
2023/04/09 06:46:03;;;;;;;7.50;4.17;;;;;;;;;;4992959;28;20018;-62
2023/04/09 06:48:30;;;;;;;4.60;2.87;;;;;;;;;;4991710;28;20117;-62
2023/04/09 06:50:57;;;;;;;5.33;3.00;;;;;;;;;;4992431;28;20023;-62
2023/04/09 06:53:23;;;;;;;9.97;4.10;;;;;;;;;;4992503;28;20489;-61
2023/04/09 06:55:50;;;;;;;5.20;3.83;;;;;;;;;;4987305;28;20493;-61
2023/04/09 06:58:17;;;;;;;6.60;4.87;;;;;;;;;;4987431;28;20026;-61
2023/04/09 07:00:46;;;;;;;4.10;3.10;;;;;;;;;;4987448;28;20034;-62
2023/04/09 07:03:14;;;;;;;8.80;4.43;;;;;;;;;;4987297;28;20027;-61
2023/04/09 07:05:41;;;;;;;5.10;3.40;;;;;;;;;;4991747;28;20026;-60
2023/04/09 07:08:08;;;;;;;7.30;4.47;;;;;;;;;;4992576;28;20021;-62
2023/04/09 07:10:35;;;;;;;6.57;4.60;;;;;;;;;;4992642;28;20026;-62
2023/04/09 07:13:02;;;;;;;7.63;4.40;;;;;;;;;;4992269;28;20121;-61
2023/04/09 07:15:28;;;;;;;5.07;3.53;;;;;;;;;;4992446;28;20030;-60
2023/04/09 07:17:56;;;;;;;10.43;3.37;;;;;;;;;;4988046;28;20081;-61
2023/04/09 07:20:23;;;;;;;4.37;3.13;;;;;;;;;;4986778;28;20044;-62
2023/04/09 07:22:50;;;;;;;5.83;2.50;;;;;;;;;;4987302;28;20481;-61
2023/04/09 07:25:16;;;;;;;6.90;3.57;;;;;;;;;;4987278;28;20465;-61
2023/04/09 07:27:43;;;;;;;6.33;4.03;;;;;;;;;;4990700;28;20473;-60
2023/04/09 07:30:10;;;;;;;5.20;3.17;;;;;;;;;;4992277;28;20358;-60
2023/04/09 07:32:37;;;;;;;3.33;2.90;;;;;;;;;;4992299;28;20034;-62
2023/04/09 07:35:04;;;;;;;6.73;3.70;;;;;;;;;;4992237;28;20026;-62
2023/04/09 07:37:31;;;;;;;3.17;2.17;;;;;;;;;;4992192;28;20050;-61
2023/04/09 07:39:57;;;;;;;4.47;2.50;;;;;;;;;;4988751;28;20556;-61
2023/04/09 07:42:24;;;;;;;2.80;2.20;;;;;;;;;;4986875;28;20737;-62
2023/04/09 07:44:51;;;;;;;4.43;3.13;;;;;;;;;;4987054;28;20034;-62
2023/04/09 07:47:18;;;;;;;21.30;4.60;;;;;;;;;;4986941;28;20478;-63
2023/04/09 07:49:44;;;;;;;4.50;3.07;;;;;;;;;;4989545;28;20401;-60
2023/04/09 07:52:11;;;;;;;4.27;3.33;;;;;;;;;;4991875;28;20038;-60
2023/04/09 07:54:38;;;;;;;3.23;2.67;;;;;;;;;;4992363;28;20377;-60
2023/04/09 07:57:05;;;;;;;8.77;3.70;;;;;;;;;;4991790;28;20030;-61
2023/04/09 07:59:32;;;;;;;3.70;2.47;;;;;;;;;;4992645;28;20105;-61
2023/04/09 08:01:59;;;;;;;10.13;3.03;;;;;;;;;;4992936;28;20041;-60
2023/04/09 08:04:26;;;;;;;4.60;3.67;;;;;;;;;;4990064;28;20033;-61
2023/04/09 08:06:52;;;;;;;4.43;3.47;;;;;;;;;;4990366;28;20027;-61
2023/04/09 08:09:22;;;;;;;5.67;3.17;;;;;;;;;;4990439;28;20018;-60
2023/04/09 08:11:49;;;;;;;4.00;2.73;;;;;;;;;;4991931;28;20034;-61
2023/04/09 08:14:16;;;;;;;4.30;2.97;;;;;;;;;;4995162;28;20037;-61
2023/04/09 08:16:43;;;;;;;5.30;3.40;;;;;;;;;;4995102;28;20105;-60
2023/04/09 08:19:10;;;;;;;4.70;2.47;;;;;;;;;;4995459;28;20023;-60
2023/04/09 08:21:45;;;;;;;4.53;3.60;;;;;;;;;;4995231;28;20032;-61
2023/04/09 08:24:11;;;;;;;6.30;4.10;;;;;;;;;;4993092;28;20033;-61
2023/04/09 08:26:39;;;;;;;10.93;4.03;;;;;;;;;;4990002;28;20026;-61
2023/04/09 08:29:05;;;;;;;4.63;2.73;;;;;;;;;;4989861;28;20444;-61
2023/04/09 08:31:32;;;;;;;7.63;3.60;;;;;;;;;;4989751;28;20073;-60
2023/04/09 08:33:59;;;;;;;4.70;3.27;;;;;;;;;;4991015;28;20382;-60
2023/04/09 08:36:26;;;;;;;4.93;3.57;;;;;;;;;;4994934;28;20065;-60
2023/04/09 08:38:54;;;;;;;4.37;3.37;;;;;;;;;;4994590;28;20037;-61
2023/04/09 08:41:23;;;;;;;4.40;3.07;;;;;;;;;;4995054;28;20086;-60
2023/04/09 08:43:51;;;;;;;4.23;2.27;;;;;;;;;;4994376;28;20050;-60
2023/04/09 08:46:21;;;;;;;5.03;2.30;;;;;;;;;;4993409;28;20030;-61
2023/04/09 08:48:49;;;;;;;3.57;2.77;;;;;;;;;;4990043;28;20034;-60
2023/04/09 08:51:22;;;;;;;3.20;2.47;;;;;;;;;;4994163;28;20058;-61
2023/04/09 08:53:52;;;;;;;5.83;3.27;;;;;;;;;;4989353;28;20096;-61
2023/04/09 08:56:20;;;;;;;6.60;3.87;;;;;;;;;;4990071;28;20019;-60
2023/04/09 08:58:47;;;;;;;4.33;3.20;;;;;;;;;;4994654;28;20069;-60
2023/04/09 09:01:20;;;;;;;4.63;3.63;;;;;;;;;;4994614;28;20023;-60
2023/04/09 09:04:00;;;;;;;6.23;2.83;;;;;;;;;;4993945;28;20018;-61
2023/04/09 09:06:28;;;;;;;2.57;1.90;;;;;;;;;;4994489;28;20101;-61
2023/04/09 09:09:15;;;;;;;4.37;2.30;;;;;;;;;;4992585;28;20485;-60
2023/04/09 09:11:49;;;;;;;4.27;2.80;;;;;;;;;;4988144;28;20038;-60
2023/04/09 09:14:19;;;;;;;3.10;2.03;;;;;;;;;;4989067;28;20038;-61
2023/04/09 09:16:55;;;;;;;6.03;3.43;;;;;;;;;;4989017;28;20081;-60
2023/04/09 09:19:25;;;;;;;3.27;2.20;;;;;;;;;;4991106;28;20381;-61
2023/04/09 09:21:58;;;;;;;6.37;3.40;;;;;;;;;;4994185;28;20018;-60
2023/04/09 09:24:25;;;;;;;7.10;2.80;;;;;;;;;;4993757;28;20023;-60
2023/04/09 09:26:53;;;;;;;3.77;2.70;;;;;;;;;;4993981;28;20035;-60
2023/04/09 09:29:20;;;;;;;6.73;2.20;;;;;;;;;;4993770;28;20115;-60
2023/04/09 09:31:51;;;;;;;2.53;1.77;;;;;;;;;;4991165;28;20034;-60
2023/04/09 09:34:18;;;;;;;3.40;2.73;;;;;;;;;;4988533;28;20030;-61
2023/04/09 09:36:45;;;;;;;6.20;3.47;;;;;;;;;;4988505;28;20030;-61
2023/04/09 09:39:13;;;;;;;5.50;3.30;;;;;;;;;;4988626;28;20061;-61
2023/04/09 09:41:43;;;;;;;4.83;2.23;;;;;;;;;;4990105;28;20053;-60
2023/04/09 09:44:11;;;;;;;3.67;2.80;;;;;;;;;;4993342;28;20042;-60
2023/04/09 09:46:39;;;;;;;3.73;2.50;;;;;;;;;;4993584;28;20030;-60
2023/04/09 09:49:06;;;;;;;6.80;3.07;;;;;;;;;;4993391;28;20022;-60
2023/04/09 09:51:35;;;;;;;3.17;2.37;;;;;;;;;;4993282;28;20034;-60
2023/04/09 09:54:02;;;;;;;3.97;2.77;;;;;;;;;;4991262;28;20030;-60
2023/04/09 09:56:36;;;;;;;2.70;2.27;;;;;;;;;;4988227;28;20113;-60
2023/04/09 09:59:06;;;;;;;3.08;2.28;;;;;;;;;;4988191;28;20482;-60
2023/04/09 10:01:35;;;;;;;2.13;1.67;;;;;;;;;;4988270;28;20026;-60
2023/04/09 10:04:04;;;;;;;3.53;2.50;;;;;;;;;;4989734;28;20068;-60
2023/04/09 10:06:33;;;;;;;2.37;1.93;;;;;;;;;;4993280;28;20125;-60
2023/04/09 10:09:03;;;;;;;3.27;2.37;;;;;;;;;;4993315;28;20057;-60
2023/04/09 10:11:31;;;;;;;2.23;1.73;;;;;;;;;;4992846;28;20073;-61
2023/04/09 10:13:58;;;;;;;2.83;2.07;;;;;;;;;;4993171;28;20026;-60
2023/04/09 10:16:28;;;;;;;4.37;3.03;;;;;;;;;;4990808;28;20034;-60
2023/04/09 10:18:56;;;;;;;4.20;2.97;;;;;;;;;;4987815;28;20026;-60
2023/04/09 10:21:32;;;;;;;4.50;3.53;;;;;;;;;;4987569;28;20030;-61
2023/04/09 10:24:04;;;;;;;6.10;3.90;;;;;;;;;;4987642;28;20027;-60
2023/04/09 10:26:32;;;;;;;3.83;3.00;;;;;;;;;;4989449;28;20058;-60
2023/04/09 10:29:07;;;;;;;5.47;3.80;;;;;;;;;;4993014;28;20026;-60
2023/04/09 10:31:46;;;;;;;7.37;4.10;;;;;;;;;;4992730;28;20477;-60
2023/04/09 10:34:17;;;;;;;4.53;3.43;;;;;;;;;;4992757;28;20662;-61
2023/04/09 10:36:45;;;;;;;3.90;2.97;;;;;;;;;;4991884;28;20056;-60
2023/04/09 10:39:13;;;;;;;4.30;3.17;;;;;;;;;;4989681;28;20510;-60
2023/04/09 10:41:40;;;;;;;8.27;3.30;;;;;;;;;;4987676;28;20557;-61
2023/04/09 10:44:19;;;;;;;6.07;3.77;;;;;;;;;;4987524;28;20117;-60
2023/04/09 10:46:46;;;;;;;5.37;3.63;;;;;;;;;;4987781;28;20373;-60
2023/04/09 10:49:16;;;;;;;3.50;2.70;;;;;;;;;;4989909;28;20015;-60
2023/04/09 10:51:47;;;;;;;4.30;2.80;;;;;;;;;;4991859;28;20026;-60
2023/04/09 10:54:32;;;;;;;9.27;4.20;;;;;;;;;;4992851;28;20033;-61
2023/04/09 10:57:08;;;;;;;2.63;2.10;;;;;;;;;;4992575;28;20022;-60
2023/04/09 10:59:35;;;;;;;3.87;2.87;;;;;;;;;;4992526;28;20038;-60
2023/04/09 11:02:02;;;;;;;3.53;3.00;;;;;;;;;;4988598;28;20030;-61
2023/04/09 11:04:39;;;;;;;6.63;4.27;;;;;;;;;;4987368;28;20031;-60
2023/04/09 11:07:06;;;;;;;6.37;3.43;;;;;;;;;;4987165;28;20026;-60
2023/04/09 11:09:36;;;;;;;4.07;2.70;;;;;;;;;;4987459;28;20050;-61
2023/04/09 11:12:03;;;;;;;5.77;3.07;;;;;;;;;;4990451;28;20035;-60
2023/04/09 11:14:30;;;;;;;4.17;2.67;;;;;;;;;;4992322;28;20477;-61
2023/04/09 11:16:57;;;;;;;6.20;3.30;;;;;;;;;;4992084;28;20489;-60
2023/04/09 11:19:23;;;;;;;3.37;2.57;;;;;;;;;;4992594;28;20025;-60
2023/04/09 11:21:50;;;;;;;2.73;2.37;;;;;;;;;;4992487;28;20027;-60
2023/04/09 11:24:18;;;;;;;2.60;2.10;;;;;;;;;;4989370;28;20373;-60
2023/04/09 11:26:47;;;;;;;3.47;2.50;;;;;;;;;;4987292;28;20428;-60
2023/04/09 11:29:14;;;;;;;3.20;2.30;;;;;;;;;;4987090;28;20109;-61
2023/04/09 11:31:45;;;;;;;4.40;3.40;;;;;;;;;;4986875;28;20084;-60
2023/04/09 11:34:12;;;;;;;4.47;2.93;;;;;;;;;;4989549;28;20054;-60
2023/04/09 11:36:38;;;;;;;3.63;2.93;;;;;;;;;;4996189;28;20271;-60
2023/04/09 11:39:05;;;;;;;3.57;2.60;;;;;;;;;;4995939;28;20084;-61
2023/04/09 11:41:38;;;;;;;3.67;2.33;;;;;;;;;;4995901;28;20805;-61
2023/04/09 11:44:06;;;;;;;9.90;4.73;;;;;;;;;;4995609;28;20279;-60
2023/04/09 11:46:33;;;;;;;3.87;3.10;;;;;;;;;;4993009;28;20638;-60
2023/04/09 11:48:59;;;;;;;5.47;2.73;;;;;;;;;;4993139;28;21435;-60
2023/04/09 11:51:27;;;;;;;4.93;3.73;;;;;;;;;;4993641;28;20113;-60
2023/04/09 11:53:53;;;;;;;4.30;3.00;;;;;;;;;;4990614;28;20268;-60
2023/04/09 11:56:20;;;;;;;4.53;3.43;;;;;;;;;;4992954;28;20381;-60
2023/04/09 11:58:47;;;;;;;4.83;2.93;;;;;;;;;;4995572;28;20264;-61
2023/04/09 12:01:15;;;;;;;4.73;3.23;;;;;;;;;;4995616;28;20114;-61
2023/04/09 12:03:41;;;;;;;5.03;3.40;;;;;;;;;;4995599;28;20260;-60
2023/04/09 12:06:08;;;;;;;7.83;4.97;;;;;;;;;;4995431;28;20290;-60
2023/04/09 12:08:36;;;;;;;9.80;4.23;;;;;;;;;;4993122;28;20589;-60
2023/04/09 12:11:12;;;;;;;6.83;5.13;;;;;;;;;;4990167;28;20339;-60
2023/04/09 12:13:43;;;;;;;5.20;3.03;;;;;;;;;;4990137;28;20299;-60
2023/04/09 12:16:12;;;;;;;10.60;3.00;;;;;;;;;;4990281;28;20659;-60
2023/04/09 12:18:40;;;;;;;4.23;2.87;;;;;;;;;;4991833;28;20248;-60
2023/04/09 12:21:06;;;;;;;10.70;3.93;;;;;;;;;;4994772;28;20263;-60
2023/04/09 12:23:36;;;;;;;5.90;4.60;;;;;;;;;;4995023;28;20264;-60
2023/04/09 12:26:03;;;;;;;7.53;4.03;;;;;;;;;;4995074;28;20267;-60
2023/04/09 12:28:30;;;;;;;5.93;3.80;;;;;;;;;;4995107;28;20129;-60
2023/04/09 12:30:58;;;;;;;14.90;4.20;;;;;;;;;;4992993;28;20347;-60
2023/04/09 12:33:24;;;;;;;3.63;2.80;;;;;;;;;;4989675;28;20283;-60
2023/04/09 12:35:51;;;;;;;3.97;2.80;;;;;;;;;;4989835;28;20037;-60
2023/04/09 12:38:18;;;;;;;6.07;4.23;;;;;;;;;;4989376;28;20057;-60
2023/04/09 12:40:45;;;;;;;4.63;2.13;;;;;;;;;;4990626;28;20260;-60
2023/04/09 12:43:11;;;;;;;5.57;3.70;;;;;;;;;;4994698;28;20375;-60
2023/04/09 12:45:38;;;;;;;6.43;3.73;;;;;;;;;;4994947;28;20263;-60
2023/04/09 12:48:05;;;;;;;7.50;3.47;;;;;;;;;;4994720;28;20355;-61
2023/04/09 12:50:32;;;;;;;3.47;2.40;;;;;;;;;;4994264;28;20098;-60
2023/04/09 12:52:58;;;;;;;6.00;3.67;;;;;;;;;;4993212;28;20062;-60
2023/04/09 12:55:25;;;;;;;13.87;4.33;;;;;;;;;;4989392;28;20065;-60
2023/04/09 12:57:52;;;;;;;13.13;5.20;;;;;;;;;;4988800;28;20149;-60
2023/04/09 13:00:19;;;;;;;6.97;5.00;;;;;;;;;;4989315;28;20322;-60
2023/04/09 13:02:45;;;;;;;16.97;4.50;;;;;;;;;;4989478;28;20042;-60
2023/04/09 13:05:12;;;;;;;5.40;4.27;;;;;;;;;;4994314;28;20034;-60
2023/04/09 13:07:39;;;;;;;7.17;4.73;;;;;;;;;;4994127;28;20065;-60
2023/04/09 13:10:06;;;;;;;9.10;4.33;;;;;;;;;;4994311;28;20050;-60
2023/04/09 13:12:32;;;;;;;4.70;3.93;;;;;;;;;;4994180;28;20125;-60
2023/04/09 13:14:59;;;;;;;10.77;3.50;;;;;;;;;;4993334;28;20022;-62
2023/04/09 13:17:26;;;;;;;9.27;5.17;;;;;;;;;;4988879;28;20033;-61
2023/04/09 13:19:53;;;;;;;3.80;2.97;;;;;;;;;;4988847;28;20457;-60
2023/04/09 13:22:19;;;;;;;5.73;4.00;;;;;;;;;;4988824;28;20033;-61
2023/04/09 13:24:46;;;;;;;8.73;5.20;;;;;;;;;;4988790;28;20026;-60
2023/04/09 13:27:13;;;;;;;5.57;4.23;;;;;;;;;;4993558;28;20029;-60
2023/04/09 13:29:39;;;;;;;4.70;3.17;;;;;;;;;;4994116;28;20101;-61
2023/04/09 13:32:06;;;;;;;5.93;4.43;;;;;;;;;;4993560;28;20034;-61
2023/04/09 13:34:34;;;;;;;6.93;5.03;;;;;;;;;;4993405;28;20029;-61
2023/04/09 13:37:01;;;;;;;8.87;5.03;;;;;;;;;;4993588;28;20448;-62
2023/04/09 13:39:27;;;;;;;4.13;3.07;;;;;;;;;;4988842;28;20033;-62
2023/04/09 13:41:55;;;;;;;6.50;4.47;;;;;;;;;;4988487;28;20023;-62
2023/04/09 13:44:22;;;;;;;4.43;3.30;;;;;;;;;;4988226;28;20509;-62
2023/04/09 13:46:48;;;;;;;5.97;4.40;;;;;;;;;;4988505;28;20515;-62
2023/04/09 13:49:15;;;;;;;8.43;4.17;;;;;;;;;;4991969;28;20474;-62
2023/04/09 13:51:42;;;;;;;8.13;5.00;;;;;;;;;;4992968;28;20041;-61
2023/04/09 13:54:10;;;;;;;6.73;4.87;;;;;;;;;;4993404;28;20529;-61
2023/04/09 13:56:37;;;;;;;4.93;3.93;;;;;;;;;;4993554;28;20069;-61
2023/04/09 13:59:04;;;;;;;4.93;3.00;;;;;;;;;;4992764;28;20022;-61
2023/04/09 14:01:30;;;;;;;4.77;3.20;;;;;;;;;;4989080;28;20045;-61
2023/04/09 14:03:57;;;;;;;5.77;3.67;;;;;;;;;;4988121;28;20382;-66
2023/04/09 14:06:25;;;;;;;5.00;3.73;;;;;;;;;;4987674;28;20030;-66
2023/04/09 14:08:51;;;;;;;5.30;3.73;;;;;;;;;;4988012;28;20425;-66
2023/04/09 14:11:18;;;;;;;6.83;4.20;;;;;;;;;;4990933;28;20022;-66
2023/04/09 14:13:45;;;;;;;5.57;4.03;;;;;;;;;;4993170;28;20027;-66
2023/04/09 14:16:12;;;;;;;7.13;3.93;;;;;;;;;;4993118;28;20022;-66
2023/04/09 14:18:39;;;;;;;6.90;4.87;;;;;;;;;;4993130;28;20022;-66
2023/04/09 14:21:06;;;;;;;6.73;5.00;;;;;;;;;;4992828;28;20027;-67
2023/04/09 14:23:34;;;;;;;8.77;4.70;;;;;;;;;;4989455;28;20028;-67
2023/04/09 14:26:01;;;;;;;7.97;4.37;;;;;;;;;;4987804;28;20034;-66
2023/04/09 14:28:27;;;;;;;5.70;4.07;;;;;;;;;;4987291;28;20556;-66
2023/04/09 14:30:54;;;;;;;6.67;4.30;;;;;;;;;;4970242;28;20492;-66
2023/04/09 14:33:21;;;;;;;6.57;4.23;;;;;;;;;;4990194;28;20041;-66
2023/04/09 14:35:47;;;;;;;5.60;4.03;;;;;;;;;;4992953;28;20117;-66
2023/04/09 14:38:15;;;;;;;6.00;4.67;;;;;;;;;;4992638;28;20030;-67
2023/04/09 14:40:41;;;;;;;9.07;4.77;;;;;;;;;;4992656;28;20050;-67
2023/04/09 14:43:08;;;;;;;17.03;5.13;;;;;;;;;;4992756;28;20034;-66
2023/04/09 14:45:35;;;;;;;6.43;4.13;;;;;;;;;;4989560;28;20029;-67